University of Illinois Willard Airport
KCMI : now visible

Airfield :











YOU CAN JOIN US ON...

 
LOGIN :

Register | Disclaimer

   EN    FR    IT 

 









Legend :    VFR   Marginal VFR   IFR   Intensive IFR   Very Intensive IFR
Visi :
Ceiling :
>= 8 km
>= 3000ft
5 to 8 km
1000 to 3000 ft
1500m to 5 km
500 to 1000 ft
800 to 1500m
200 to 500 ft
< 800m
< 200 ft
Symbols :   Thunderstorms  Fog  Heavy snow  Heavy precipitations  Wind > 20 kt






- Airport Elevation : 755 ft
- IATA code : CMI


KCMI - University of Illinois Willard

CURRENT METAR :
  • 171453Z 15005KT 5SM BR CLR 00/M01 A3007 RMK AO2 SLP190 T00001011 56010

EXPIRED METARs :
  • 171353Z 12005KT 5SM BR CLR M01/M02 A3007 RMK AO2 SLP191 T10111022
  • 171253Z 10005KT 4SM BR CLR M02/M03 A3009 RMK AO2 SLP197 T10221033

TAF KCMI
Valid from the 17 at 15:00 until the 18 at 12:00 UTC


171456Z 1715/1812 12005KT 5SM BR OVC120
TEMPO 1715/1716 6SM BR
FM171600 14007KT 6SM BR OVC120
FM171900 16007KT P6SM SCT060 OVC100
FM180100 20006KT P6SM VCSH SCT015 OVC050
FM180300 24006KT 5SM -RA BKN012 OVC040
FM180500 29006KT P6SM VCSH OVC010
FM180700 30012KT P6SM SCT008 OVC012



MET'MAP, your aeronautical weather chart ! - Copyright ORBIFLY December 2007 - Disclaimer

ORBIFLY MET'MAP TEAM :

Programming & Development : Alexandra Zaïnal
Concept & Development : Baudouin d'Aumeries
Co-Development & Prog : Marc-Olivier Méhu
Technical & hardware support : Manuel Goepfert

Contact : metmap@orbifly.com




SOURCES & CREDITS :

   NOAA       Earth
Advisory